Time;durP1;ratioP1;P1;durP2;ratioP2;P2;SDS_P1;SDS_P2;PMS_P1;PMS_P2;Temp;Humidity;BMP_temperature;BMP_pressure;BME280_temperature;BME280_humidity;BME280_pressure;Samples;Min_cycle;Max_cycle;Signal;HPM_P1;HPM_P2
2023/10/30 00:02:08;;;;;;;1.33;0.50;;;;;;;10.67;92.88;99296.81;4881026;28;20061;-80
2023/10/30 00:04:36;;;;;;;1.20;0.57;;;;;;;10.64;92.89;99292.50;4877009;28;20063;-82
2023/10/30 00:07:03;;;;;;;1.88;0.57;;;;;;;10.66;92.82;99301.22;4873478;29;20501;-79
2023/10/30 00:09:30;;;;;;;0.70;0.50;;;;;;;10.66;92.70;99316.97;4870915;29;20101;-82
2023/10/30 00:11:56;;;;;;;1.73;0.45;;;;;;;10.68;92.90;99325.63;4881851;29;20056;-81
2023/10/30 00:14:23;;;;;;;1.05;0.35;;;;;;;10.67;92.58;99318.66;4880996;28;20056;-82
2023/10/30 00:16:50;;;;;;;1.73;0.40;;;;;;;10.68;92.77;99337.88;4875296;29;20059;-82
2023/10/30 00:19:17;;;;;;;2.40;0.45;;;;;;;10.67;92.64;99352.75;4863905;28;20045;-82
2023/10/30 00:21:44;;;;;;;0.73;0.60;;;;;;;10.69;92.54;99353.59;4885808;29;20059;-81
2023/10/30 00:24:10;;;;;;;0.77;0.32;;;;;;;10.68;92.63;99359.72;4867955;28;20218;-81
2023/10/30 00:26:38;;;;;;;1.13;0.43;;;;;;;10.66;92.34;99348.44;4904923;29;20052;-81
2023/10/30 00:29:05;;;;;;;1.95;0.65;;;;;;;10.65;92.59;99362.47;4889600;28;20043;-81
2023/10/30 00:31:32;;;;;;;1.77;0.47;;;;;;;10.68;92.39;99361.50;4863777;28;20053;-81
2023/10/30 00:33:59;;;;;;;1.77;0.20;;;;;;;10.67;92.43;99362.41;4882519;29;20055;-82
2023/10/30 00:36:26;;;;;;;1.92;0.35;;;;;;;10.68;92.32;99362.34;4871799;29;20104;-82
2023/10/30 00:38:53;;;;;;;2.58;0.50;;;;;;;10.69;92.23;99358.84;4873442;29;20049;-82
2023/10/30 00:41:19;;;;;;;1.67;0.30;;;;;;;10.71;92.49;99361.41;4909831;28;20056;-82
2023/10/30 00:43:46;;;;;;;0.63;0.20;;;;;;;10.73;92.03;99360.44;4883156;28;20049;-81
2023/10/30 00:46:14;;;;;;;1.17;0.32;;;;;;;10.73;91.95;99359.56;4869968;28;20131;-79
2023/10/30 00:48:40;;;;;;;0.55;0.28;;;;;;;10.73;91.76;99377.94;4885596;29;20060;-81
2023/10/30 00:51:07;;;;;;;3.92;1.60;;;;;;;10.74;91.63;99380.50;4881779;28;20048;-79
2023/10/30 00:53:34;;;;;;;1.83;0.30;;;;;;;10.71;91.44;99382.38;4882161;28;20056;-81
2023/10/30 00:56:01;;;;;;;0.75;0.25;;;;;;;10.72;92.00;99387.59;4875623;29;20052;-81
2023/10/30 00:58:27;;;;;;;2.08;0.32;;;;;;;10.71;91.80;99393.72;4875270;28;20439;-81
2023/10/30 01:00:54;;;;;;;1.35;0.22;;;;;;;10.72;91.58;99389.38;4879392;29;20064;-79
2023/10/30 01:03:23;;;;;;;0.20;0.20;;;;;;;10.70;91.58;99389.41;4884039;29;20056;-81
2023/10/30 01:05:58;;;;;;;0.45;0.35;;;;;;;10.69;91.47;99385.06;4883581;29;20093;-81
2023/10/30 01:08:28;;;;;;;0.57;0.10;;;;;;;10.70;91.30;99386.78;4878947;29;20539;-82
2023/10/30 01:10:58;;;;;;;0.30;0.30;;;;;;;10.68;91.55;99382.50;4890276;28;20052;-81
2023/10/30 01:13:25;;;;;;;1.13;0.20;;;;;;;10.65;91.18;99383.44;4864330;28;20139;-82
2023/10/30 01:15:53;;;;;;;1.17;0.20;;;;;;;10.67;90.66;99381.63;4883207;29;20052;-81
2023/10/30 01:18:20;;;;;;;2.13;0.20;;;;;;;10.65;90.58;99380.81;4870676;29;20146;-82
2023/10/30 01:20:47;;;;;;;1.13;0.20;;;;;;;10.64;90.84;99371.22;4890770;29;20056;-81
2023/10/30 01:23:15;;;;;;;2.45;0.35;;;;;;;10.65;90.82;99365.09;4883264;29;20049;-81
2023/10/30 01:25:42;;;;;;;1.90;0.30;;;;;;;10.61;90.82;99366.09;4876796;29;20060;-81
2023/10/30 01:28:08;;;;;;;0.60;0.30;;;;;;;10.60;91.01;99346.00;4866121;29;20049;-82
2023/10/30 01:30:35;;;;;;;1.20;0.25;;;;;;;10.62;91.17;99352.06;4870669;28;20060;-82
2023/10/30 01:33:02;;;;;;;3.33;0.28;;;;;;;10.61;91.55;99351.19;4879044;28;20048;-81
2023/10/30 01:35:29;;;;;;;2.70;0.28;;;;;;;10.58;91.36;99339.94;4885396;28;20049;-82
2023/10/30 01:37:56;;;;;;;0.32;0.20;;;;;;;10.59;91.50;99336.44;4878545;28;20068;-81
2023/10/30 01:40:23;;;;;;;2.28;0.40;;;;;;;10.58;91.75;99324.22;4886171;28;20105;-82
2023/10/30 01:42:53;;;;;;;0.77;0.15;;;;;;;10.57;91.59;99325.09;4887068;28;20099;-82
2023/10/30 01:45:20;;;;;;;0.90;0.45;;;;;;;10.54;91.85;99325.22;4875124;29;20048;-82
2023/10/30 01:47:47;;;;;;;1.25;0.40;;;;;;;10.53;91.71;99313.00;4875278;29;20108;-81
2023/10/30 01:50:16;;;;;;;1.75;0.70;;;;;;;10.50;91.77;99307.84;4882961;29;20061;-82
2023/10/30 01:52:43;;;;;;;2.08;0.50;;;;;;;10.47;91.73;99302.72;4893884;28;20143;-81
2023/10/30 01:55:10;;;;;;;1.25;0.20;;;;;;;10.43;91.77;99292.31;4899039;29;20044;-81
2023/10/30 01:57:37;;;;;;;1.30;0.20;;;;;;;10.40;91.90;99297.69;4894815;29;20075;-82
2023/10/30 02:00:05;;;;;;;1.02;0.20;;;;;;;10.40;91.74;99291.59;4863485;29;20145;-83
2023/10/30 02:02:33;;;;;;;0.63;0.10;;;;;;;10.37;91.88;99307.41;4907677;28;20059;-82
2023/10/30 02:05:00;;;;;;;1.77;0.20;;;;;;;10.37;91.26;99310.00;4887909;29;20056;-81
2023/10/30 02:07:27;;;;;;;0.55;0.15;;;;;;;10.38;91.24;99312.59;4894395;29;20052;-82
2023/10/30 02:09:54;;;;;;;2.17;0.30;;;;;;;10.37;90.92;99326.63;4903351;29;20148;-81
2023/10/30 02:12:20;;;;;;;2.60;0.30;;;;;;;10.37;90.74;99336.25;4889911;28;20053;-82
2023/10/30 02:14:47;;;;;;;1.88;0.35;;;;;;;10.35;90.82;99323.19;4890711;28;20050;-81
2023/10/30 02:17:14;;;;;;;1.33;0.20;;;;;;;10.31;91.20;99321.56;4882669;29;20052;-82
2023/10/30 02:19:41;;;;;;;1.48;0.20;;;;;;;10.29;91.26;99322.50;4876672;28;20054;-82
2023/10/30 02:22:07;;;;;;;1.05;0.45;;;;;;;10.26;91.35;99318.22;4906955;29;20141;-79
2023/10/30 02:24:34;;;;;;;2.40;0.20;;;;;;;10.26;91.54;99319.06;4893285;29;20052;-81
2023/10/30 02:27:02;;;;;;;1.60;0.47;;;;;;;10.23;91.73;99313.91;4892186;28;20050;-81
2023/10/30 02:29:29;;;;;;;1.27;0.20;;;;;;;10.21;91.58;99310.50;4874515;28;20064;-81
2023/10/30 02:31:55;;;;;;;3.47;0.28;;;;;;;10.21;91.60;99309.63;4912494;28;20052;-80
2023/10/30 02:34:22;;;;;;;1.70;0.15;;;;;;;10.18;91.76;99305.34;4884727;28;20056;-80
2023/10/30 02:36:49;;;;;;;2.05;0.28;;;;;;;10.17;91.79;99297.53;4889399;28;20057;-82
2023/10/30 02:39:16;;;;;;;3.10;0.30;;;;;;;10.18;92.08;99296.59;4876407;29;20056;-82
2023/10/30 02:41:43;;;;;;;0.85;0.25;;;;;;;10.17;92.18;99298.38;4881492;28;20084;-81
2023/10/30 02:44:10;;;;;;;2.28;0.20;;;;;;;10.16;92.26;99282.69;4877095;28;20055;-81
2023/10/30 02:46:36;;;;;;;3.17;0.50;;;;;;;10.15;92.22;99273.13;4902050;28;20052;-81
2023/10/30 02:49:03;;;;;;;0.28;0.20;;;;;;;10.15;91.99;99283.59;4886395;28;20051;-80
2023/10/30 02:51:30;;;;;;;2.10;0.20;;;;;;;10.15;92.35;99273.13;4899677;29;20048;-81
2023/10/30 02:53:57;;;;;;;1.75;0.45;;;;;;;10.16;92.28;99269.59;4897705;29;20048;-82
2023/10/30 02:56:24;;;;;;;1.65;0.50;;;;;;;10.15;91.92;99267.88;4889582;28;20544;-81
2023/10/30 02:58:50;;;;;;;0.98;0.10;;;;;;;10.16;92.12;99274.84;4885243;29;20058;-81
2023/10/30 03:01:17;;;;;;;2.42;0.20;;;;;;;10.14;92.20;99264.41;4875201;28;20104;-82
2023/10/30 03:03:44;;;;;;;4.82;0.55;;;;;;;10.14;92.29;99266.16;4878348;29;20131;-82
2023/10/30 03:06:11;;;;;;;1.35;0.20;;;;;;;10.15;92.39;99257.38;4882414;29;20111;-80
2023/10/30 03:08:38;;;;;;;3.60;0.30;;;;;;;10.13;92.51;99259.22;4874961;29;20091;-80
2023/10/30 03:11:05;;;;;;;2.13;0.30;;;;;;;10.15;92.45;99257.38;4887486;29;20136;-81
2023/10/30 03:13:31;;;;;;;1.90;0.30;;;;;;;10.12;92.27;99253.09;4882403;29;20049;-81
2023/10/30 03:15:59;;;;;;;0.52;0.30;;;;;;;10.14;92.28;99260.91;4859154;29;20153;-81
2023/10/30 03:18:26;;;;;;;0.77;0.20;;;;;;;10.13;92.28;99267.06;4866317;29;20056;-81
2023/10/30 03:20:52;;;;;;;2.10;0.28;;;;;;;10.11;92.27;99256.63;4881590;29;20108;-80
2023/10/30 03:23:20;;;;;;;1.23;0.30;;;;;;;10.12;92.29;99267.97;4885551;29;20059;-81
2023/10/30 03:25:47;;;;;;;1.52;0.40;;;;;;;10.09;92.37;99264.56;4881969;28;20054;-79
2023/10/30 03:28:14;;;;;;;1.08;0.30;;;;;;;10.09;92.35;99267.19;4875379;29;20057;-80
2023/10/30 03:30:40;;;;;;;0.77;0.35;;;;;;;10.09;92.28;99269.78;4879871;28;20053;-80
2023/10/30 03:33:08;;;;;;;2.88;0.40;;;;;;;10.09;92.42;99268.91;4867919;28;20052;-78
2023/10/30 03:35:39;;;;;;;1.73;0.52;;;;;;;10.07;92.34;99268.97;4890068;29;20136;-81
2023/10/30 03:38:05;;;;;;;0.98;0.50;;;;;;;10.08;92.39;99262.84;4877005;28;20051;-81
2023/10/30 03:40:32;;;;;;;1.50;0.20;;;;;;;10.09;92.21;99272.41;4880671;29;20044;-82
2023/10/30 03:42:59;;;;;;;0.30;0.10;;;;;;;10.09;92.49;99272.41;4891564;28;20477;-83
2023/10/30 03:45:26;;;;;;;0.50;0.10;;;;;;;10.08;92.18;99268.06;4869891;28;20059;-83
2023/10/30 03:47:53;;;;;;;1.52;0.30;;;;;;;10.09;92.57;99274.16;4880807;28;20070;-82
2023/10/30 03:50:20;;;;;;;1.55;0.50;;;;;;;10.07;92.60;99266.34;4876560;28;20084;-82
2023/10/30 03:52:47;;;;;;;2.38;0.40;;;;;;;10.07;92.71;99270.75;4884774;28;20055;-83
2023/10/30 03:55:13;;;;;;;1.67;0.28;;;;;;;10.07;92.35;99265.50;4884977;28;20059;-83
2023/10/30 03:57:41;;;;;;;1.70;0.55;;;;;;;10.06;92.59;99264.63;4887232;29;20041;-82
2023/10/30 04:00:08;;;;;;;1.35;0.50;;;;;;;10.07;92.39;99268.97;4884248;28;20044;-82
2023/10/30 04:02:35;;;;;;;2.22;0.30;;;;;;;10.06;92.58;99263.78;4869480;29;20063;-83
2023/10/30 04:05:02;;;;;;;0.57;0.13;;;;;;;10.05;92.34;99273.41;4884341;28;20075;-82
2023/10/30 04:07:30;;;;;;;0.90;0.40;;;;;;;10.07;92.94;99268.97;4859689;29;20075;-83
2023/10/30 04:09:57;;;;;;;2.53;0.20;;;;;;;10.05;92.46;99273.41;4879632;29;20485;-83
2023/10/30 04:12:23;;;;;;;1.10;0.43;;;;;;;10.05;92.47;99277.78;4896810;28;20068;-82
2023/10/30 04:14:51;;;;;;;0.20;0.13;;;;;;;10.05;92.52;99277.78;4877671;28;20049;-82
2023/10/30 04:17:18;;;;;;;1.33;0.13;;;;;;;10.03;92.34;99267.34;4860156;29;20052;-83
2023/10/30 04:19:45;;;;;;;1.10;0.20;;;;;;;10.04;92.47;99271.69;4886181;29;20048;-82
2023/10/30 04:22:12;;;;;;;1.90;0.13;;;;;;;10.05;92.44;99277.78;4882961;28;20072;-83
2023/10/30 04:24:39;;;;;;;1.27;0.20;;;;;;;10.06;92.60;99275.13;4886362;29;20052;-83
2023/10/30 04:27:06;;;;;;;1.45;0.52;;;;;;;10.02;92.44;99281.38;4889923;29;20099;-82
2023/10/30 04:29:32;;;;;;;0.88;0.30;;;;;;;10.02;92.38;99276.13;4850193;29;20121;-82
2023/10/30 04:31:59;;;;;;;0.10;0.10;;;;;;;10.01;92.30;99266.56;4881146;29;20053;-83
2023/10/30 04:34:27;;;;;;;2.22;0.20;;;;;;;10.01;92.29;99266.56;4871542;28;20056;-83
2023/10/30 04:36:54;;;;;;;0.68;0.30;;;;;;;9.97;92.24;99258.84;4871234;29;20067;-83
2023/10/30 04:39:21;;;;;;;0.77;0.52;;;;;;;9.98;92.46;99263.16;4880087;28;20047;-83
2023/10/30 04:41:48;;;;;;;2.83;0.20;;;;;;;9.98;91.94;99271.91;4879331;29;20052;-82
2023/10/30 04:44:15;;;;;;;0.38;0.17;;;;;;;9.96;92.32;99268.44;4882654;29;20072;-83
2023/10/30 04:46:42;;;;;;;1.67;0.15;;;;;;;9.96;92.27;99268.44;4878738;29;20072;-82
2023/10/30 04:49:09;;;;;;;2.05;0.38;;;;;;;9.96;92.34;99273.69;4874744;28;20053;-82
2023/10/30 04:51:36;;;;;;;0.68;0.30;;;;;;;9.96;92.16;99263.19;4878745;29;20058;-82
2023/10/30 04:54:03;;;;;;;0.57;0.28;;;;;;;9.94;92.38;99253.69;4871508;28;20466;-83
2023/10/30 04:56:29;;;;;;;0.68;0.28;;;;;;;9.94;92.37;99265.03;4870687;29;20053;-82
2023/10/30 04:58:56;;;;;;;0.30;0.10;;;;;;;9.95;92.28;99258.88;4882485;28;20056;-83
2023/10/30 05:01:23;;;;;;;1.55;0.20;;;;;;;9.91;92.31;99263.34;4866548;28;21251;-82
2023/10/30 05:03:53;;;;;;;0.47;0.20;;;;;;;9.92;92.57;99261.56;4905159;29;20060;-83
2023/10/30 05:06:20;;;;;;;2.65;0.30;;;;;;;9.94;92.47;99266.81;4874685;29;20151;-82
2023/10/30 05:08:47;;;;;;;0.88;0.20;;;;;;;9.94;92.64;99270.28;4886271;28;20056;-82
2023/10/30 05:11:13;;;;;;;1.75;0.35;;;;;;;9.91;92.17;99283.47;4873282;28;20055;-82
2023/10/30 05:13:41;;;;;;;0.65;0.30;;;;;;;9.89;92.60;99291.38;4879571;28;20057;-82
2023/10/30 05:16:08;;;;;;;1.38;0.40;;;;;;;9.90;92.64;99294.84;4865569;29;20084;-83
2023/10/30 05:18:35;;;;;;;1.25;0.20;;;;;;;9.93;92.64;99305.22;4876433;29;20160;-83
2023/10/30 05:21:02;;;;;;;0.30;0.25;;;;;;;9.95;92.69;99303.44;4883978;28;20063;-83
2023/10/30 05:23:29;;;;;;;1.92;0.40;;;;;;;9.92;92.47;99299.16;4867236;28;20049;-82
2023/10/30 05:25:56;;;;;;;2.20;0.38;;;;;;;9.92;92.54;99298.28;4899983;28;20055;-84
2023/10/30 05:28:22;;;;;;;0.70;0.20;;;;;;;9.91;92.69;99304.44;4884025;28;20048;-83
2023/10/30 05:30:52;;;;;;;0.70;0.20;;;;;;;9.90;92.44;99303.56;4872026;28;20053;-83
2023/10/30 05:33:19;;;;;;;0.95;0.20;;;;;;;9.94;92.44;99314.81;4880477;28;20053;-82
2023/10/30 05:35:51;;;;;;;2.25;0.30;;;;;;;9.90;92.55;99328.91;4877906;28;20449;-82
2023/10/30 05:38:18;;;;;;;2.90;0.32;;;;;;;9.91;92.34;99338.50;4871454;29;20489;-83
2023/10/30 05:40:46;;;;;;;0.65;0.28;;;;;;;9.91;92.16;99343.75;4881164;28;20071;-83
2023/10/30 05:43:13;;;;;;;0.50;0.22;;;;;;;9.89;92.73;99340.28;4870539;28;20049;-83
2023/10/30 05:45:40;;;;;;;1.70;0.30;;;;;;;9.88;92.63;99328.97;4874235;28;20056;-83
2023/10/30 05:48:07;;;;;;;2.97;0.30;;;;;;;9.90;92.61;99329.75;4873675;28;20058;-84
2023/10/30 05:50:34;;;;;;;3.42;0.35;;;;;;;9.91;92.79;99343.75;4876052;29;20076;-84
2023/10/30 05:53:01;;;;;;;2.90;0.30;;;;;;;9.88;92.39;99343.84;4874002;29;20106;-83
2023/10/30 05:55:28;;;;;;;0.55;0.30;;;;;;;9.90;92.61;99357.75;4883822;28;20061;-83
2023/10/30 05:57:55;;;;;;;1.42;0.20;;;;;;;9.91;92.63;99364.72;4882957;29;20051;-83
2023/10/30 06:00:23;;;;;;;1.85;0.50;;;;;;;9.95;92.69;99358.47;4865744;28;20041;-84
2023/10/30 06:02:51;;;;;;;0.80;0.32;;;;;;;9.91;92.37;99335.88;4885676;28;20112;-83
2023/10/30 06:05:18;;;;;;;1.77;0.20;;;;;;;9.91;92.43;99310.53;4868952;29;20065;-84
2023/10/30 06:07:45;;;;;;;1.00;0.40;;;;;;;9.90;92.29;99306.19;4891490;29;20058;-83
2023/10/30 06:10:13;;;;;;;0.45;0.20;;;;;;;9.89;92.21;99293.13;4874019;28;20052;-82
2023/10/30 06:12:40;;;;;;;0.40;0.40;;;;;;;9.89;92.11;99286.13;4884167;28;20048;-84
2023/10/30 06:15:07;;;;;;;0.68;0.10;;;;;;;9.94;92.10;99317.44;4870746;29;20069;-83
2023/10/30 06:17:34;;;;;;;0.30;0.30;;;;;;;9.94;91.84;99342.81;4882951;29;20517;-83
2023/10/30 06:20:03;;;;;;;1.42;0.20;;;;;;;9.96;91.76;99356.72;4888136;28;20053;-83
2023/10/30 06:22:30;;;;;;;1.17;0.10;;;;;;;9.98;91.79;99363.63;4880277;29;20167;-83
2023/10/30 06:25:00;;;;;;;0.52;0.20;;;;;;;10.01;91.99;99345.19;4872107;29;20061;-85
2023/10/30 06:27:27;;;;;;;0.60;0.28;;;;;;;10.01;92.08;99332.06;4863532;29;20056;-83
2023/10/30 06:29:55;;;;;;;0.65;0.10;;;;;;;10.01;92.26;99318.13;4885873;29;20186;-83
2023/10/30 06:32:21;;;;;;;0.30;0.10;;;;;;;10.01;91.98;99305.88;4876967;28;20041;-83
2023/10/30 06:34:48;;;;;;;0.22;0.10;;;;;;;10.01;92.16;99305.88;4909573;29;20103;-84
2023/10/30 06:37:16;;;;;;;0.10;0.10;;;;;;;10.02;92.26;99307.59;4872532;28;20049;-83
2023/10/30 06:39:43;;;;;;;0.10;0.10;;;;;;;10.01;92.32;99300.63;4884233;28;20062;-83
2023/10/30 06:42:10;;;;;;;0.05;0.00;;;;;;;10.03;92.34;99290.94;4882922;29;20083;-83
2023/10/30 06:44:37;;;;;;;2.72;0.17;;;;;;;10.02;92.26;99297.09;4874480;29;20089;-83
2023/10/30 06:47:04;;;;;;;0.17;0.10;;;;;;;10.05;91.95;99294.38;4875937;29;20064;-86
2023/10/30 06:49:30;;;;;;;1.42;0.30;;;;;;;10.00;92.08;99300.69;4877883;29;20059;-82
2023/10/30 06:51:57;;;;;;;0.98;0.50;;;;;;;10.00;92.12;99290.19;4880236;29;20064;-83
2023/10/30 06:54:24;;;;;;;1.20;0.55;;;;;;;10.04;92.31;99291.81;4875128;29;20066;-83
2023/10/30 06:56:51;;;;;;;1.05;0.30;;;;;;;10.02;92.19;99307.59;4880881;28;20157;-84
2023/10/30 06:59:18;;;;;;;1.05;0.20;;;;;;;10.00;92.45;99327.72;4875846;29;20053;-83
2023/10/30 07:01:46;;;;;;;0.52;0.30;;;;;;;10.00;92.54;99332.13;4877683;29;20060;-83
2023/10/30 07:04:14;;;;;;;1.08;0.32;;;;;;;10.00;92.73;99332.97;4896329;28;20049;-83
2023/10/30 07:06:43;;;;;;;0.20;0.20;;;;;;;10.01;92.66;99345.19;4882257;29;20044;-83
2023/10/30 07:09:12;;;;;;;1.35;0.30;;;;;;;10.01;92.79;99355.66;4879558;29;20051;-82
2023/10/30 07:11:42;;;;;;;0.70;0.30;;;;;;;10.01;92.73;99360.91;4885387;28;20080;-84
2023/10/30 07:14:09;;;;;;;0.77;0.38;;;;;;;10.05;92.84;99352.06;4882472;28;20085;-85
2023/10/30 07:16:36;;;;;;;0.80;0.47;;;;;;;10.09;93.06;99347.56;4885291;29;20060;-85
2023/10/30 07:19:11;;;;;;;3.50;0.52;;;;;;;10.12;93.18;99349.25;4870762;29;20077;-84
2023/10/30 07:21:38;;;;;;;1.45;0.40;;;;;;;10.12;93.17;99346.63;4863308;29;20045;-84
2023/10/30 07:24:08;;;;;;;2.60;1.05;;;;;;;10.13;93.07;99343.09;4877864;28;20143;-85
2023/10/30 07:26:35;;;;;;;2.40;1.30;;;;;;;10.10;93.41;99334.41;4872504;28;20801;-84
2023/10/30 07:29:02;;;;;;;1.58;0.52;;;;;;;10.08;93.13;99325.75;4872809;29;20501;-84
2023/10/30 07:31:29;;;;;;;2.22;0.70;;;;;;;10.12;93.34;99326.50;4871453;29;20151;-84
2023/10/30 07:33:58;;;;;;;0.90;0.47;;;;;;;10.09;93.11;99323.97;4868149;28;20391;-84
2023/10/30 07:36:26;;;;;;;1.65;0.50;;;;;;;10.06;92.77;99327.53;4864391;29;20053;-85
2023/10/30 07:38:52;;;;;;;2.17;0.60;;;;;;;10.12;92.62;99330.88;4877651;29;20108;-84
2023/10/30 07:41:19;;;;;;;1.13;0.40;;;;;;;10.14;92.63;99329.06;4890693;29;20418;-85
2023/10/30 07:43:47;;;;;;;0.82;0.32;;;;;;;10.09;92.16;99342.31;4876000;29;20057;-85
2023/10/30 07:46:14;;;;;;;1.30;0.20;;;;;;;10.13;92.41;99350.97;4867600;29;20060;-85
2023/10/30 07:48:44;;;;;;;1.17;0.20;;;;;;;10.18;92.90;99355.16;4849892;28;20064;-84
2023/10/30 07:51:17;;;;;;;1.13;0.40;;;;;;;10.08;92.47;99377.31;4865228;29;20064;-85
2023/10/30 07:53:44;;;;;;;0.57;0.20;;;;;;;10.08;92.79;99399.13;4870010;29;20049;-84
2023/10/30 07:56:11;;;;;;;0.22;0.10;;;;;;;10.09;92.90;99385.13;4847203;28;20060;-84
2023/10/30 07:58:39;;;;;;;0.98;0.30;;;;;;;10.10;92.91;99399.09;4876102;29;20057;-83
2023/10/30 08:01:11;;;;;;;0.52;0.30;;;;;;;10.15;92.93;99404.19;4876612;28;20052;-83
2023/10/30 08:03:44;;;;;;;0.98;0.30;;;;;;;10.16;93.10;99406.75;4872229;29;20125;-82
2023/10/30 08:06:12;;;;;;;1.10;0.30;;;;;;;10.15;93.20;99407.66;4883009;28;20052;-84
2023/10/30 08:08:39;;;;;;;0.95;0.57;;;;;;;10.14;92.89;99402.47;4852174;29;20048;-83
2023/10/30 08:11:06;;;;;;;1.92;0.50;;;;;;;10.18;92.86;99415.47;4868905;28;20111;-84
2023/10/30 08:13:36;;;;;;;2.03;0.85;;;;;;;10.21;93.31;99401.38;4860830;29;20063;-84
2023/10/30 08:16:04;;;;;;;1.55;0.77;;;;;;;10.21;92.80;99404.00;4884265;29;20185;-83
2023/10/30 08:18:41;;;;;;;1.42;0.82;;;;;;;10.33;93.04;99401.03;4740503;29;20163;-83
2023/10/30 08:21:16;;;;;;;1.90;0.80;;;;;;;10.31;92.86;99384.50;4864327;29;20056;-84
2023/10/30 08:23:46;;;;;;;2.42;0.90;;;;;;;10.32;93.20;99367.81;4874626;28;20053;-82
2023/10/30 08:26:16;;;;;;;1.52;0.90;;;;;;;10.39;93.26;99343.16;4873646;28;20049;-83
2023/10/30 08:28:48;;;;;;;1.80;1.08;;;;;;;10.37;92.86;99321.38;4866946;29;20152;-82
2023/10/30 08:31:15;;;;;;;1.02;0.70;;;;;;;10.48;92.73;99323.66;4835623;29;20040;-84
2023/10/30 08:33:42;;;;;;;1.02;0.85;;;;;;;10.51;92.52;99320.06;4842553;29;20064;-83
2023/10/30 08:36:12;;;;;;;1.02;0.90;;;;;;;10.66;92.87;99316.97;4872864;29;20073;-83
2023/10/30 08:38:42;;;;;;;;;;;;;;;10.74;92.89;99308.81;4871262;29;20451;-83
2023/10/30 08:41:14;;;;;;;1.42;0.65;;;;;;;10.72;92.89;99303.63;4866365;29;20402;-83
2023/10/30 08:43:42;;;;;;;0.80;0.80;;;;;;;10.84;92.96;99310.22;4874234;29;20055;-83
2023/10/30 08:46:08;;;;;;;0.75;0.57;;;;;;;10.81;92.81;99317.34;4873311;29;20147;-84
2023/10/30 08:48:36;;;;;;;0.90;0.60;;;;;;;10.83;93.01;99313.75;4876289;28;20049;-83
2023/10/30 08:51:04;;;;;;;0.47;0.45;;;;;;;10.88;92.85;99308.34;4859397;29;20071;-83
2023/10/30 08:53:41;;;;;;;2.25;0.70;;;;;;;10.91;92.76;99313.50;4825634;29;20052;-83
2023/10/30 08:56:08;;;;;;;2.90;0.80;;;;;;;11.11;92.87;99315.44;4856972;29;20144;-84
2023/10/30 08:58:35;;;;;;;2.88;0.80;;;;;;;11.24;92.77;99321.97;4881700;29;20056;-84
2023/10/30 09:01:03;;;;;;;3.85;1.42;;;;;;;11.27;92.45;99308.72;4876274;29;20084;-83
2023/10/30 09:03:31;;;;;;;1.70;1.10;;;;;;;11.38;92.73;99321.44;4866105;29;20049;-84
2023/10/30 09:05:58;;;;;;;3.58;1.10;;;;;;;11.44;92.42;99310.75;4890351;29;20092;-84
2023/10/30 09:08:25;;;;;;;2.55;1.10;;;;;;;11.51;92.35;99294.75;4878261;29;20057;-83
2023/10/30 09:10:52;;;;;;;1.42;0.77;;;;;;;11.55;92.57;99293.72;4882633;29;20052;-83
2023/10/30 09:13:19;;;;;;;2.72;0.90;;;;;;;11.51;92.37;99294.75;4859445;29;20053;-84
2023/10/30 09:15:45;;;;;;;1.73;0.88;;;;;;;11.65;92.50;99297.72;4881291;29;20063;-84
2023/10/30 09:18:12;;;;;;;0.88;0.60;;;;;;;11.69;92.42;99304.56;4866434;29;20092;-84
2023/10/30 09:20:39;;;;;;;0.95;0.70;;;;;;;11.76;92.66;99286.78;4881537;29;20116;-83
2023/10/30 09:23:06;;;;;;;1.17;0.50;;;;;;;11.70;91.82;99279.97;4868601;29;20477;-84
2023/10/30 09:25:33;;;;;;;0.55;0.45;;;;;;;11.80;91.97;99260.34;4880113;29;20065;-84
2023/10/30 09:28:02;;;;;;;0.60;0.35;;;;;;;11.75;91.40;99267.53;4873551;29;20084;-83
2023/10/30 09:30:30;;;;;;;0.40;0.40;;;;;;;11.91;91.32;99264.31;4884429;29;20138;-83
2023/10/30 09:32:58;;;;;;;0.40;0.30;;;;;;;12.11;91.27;99253.88;4881755;29;20132;-84
2023/10/30 09:35:30;;;;;;;0.55;0.30;;;;;;;12.27;91.30;99253.28;4873829;29;20048;-83
2023/10/30 09:37:56;;;;;;;0.40;0.30;;;;;;;12.26;90.93;99262.09;4886133;29;20053;-84
2023/10/30 09:40:27;;;;;;;2.05;0.57;;;;;;;12.32;91.11;99267.94;4892740;23;20416;-86
2023/10/30 09:42:54;;;;;;;1.05;0.30;;;;;;;12.23;90.60;99268.31;4920453;28;20162;-86
2023/10/30 09:45:24;;;;;;;0.90;0.45;;;;;;;12.15;90.52;99266.00;4910727;28;20055;-87
2023/10/30 09:47:52;;;;;;;1.15;0.40;;;;;;;12.10;90.55;99262.69;4915830;28;20083;-87
2023/10/30 09:50:20;;;;;;;0.45;0.32;;;;;;;11.97;90.37;99230.78;4910500;28;20044;-87
2023/10/30 09:52:48;;;;;;;2.45;0.47;;;;;;;11.98;90.36;99237.75;4916562;28;20431;-87
2023/10/30 09:55:18;;;;;;;1.15;0.30;;;;;;;11.95;90.55;99230.00;4918806;28;20060;-87
2023/10/30 09:57:49;;;;;;;4.47;0.50;;;;;;;11.97;90.57;99235.19;4905276;29;20066;-87
2023/10/30 10:00:17;;;;;;;0.75;0.47;;;;;;;11.90;90.61;99239.78;4908063;28;20056;-86
2023/10/30 10:02:44;;;;;;;1.58;0.90;;;;;;;11.91;90.62;99238.03;4921276;28;20138;-87
2023/10/30 10:05:12;;;;;;;0.80;0.70;;;;;;;11.83;90.63;99249.69;4919200;28;20050;-86
2023/10/30 10:07:39;;;;;;;2.00;1.00;;;;;;;11.88;90.97;99236.38;4918332;28;20052;-87
2023/10/30 10:10:10;;;;;;;1.48;1.08;;;;;;;11.90;90.85;99241.56;4915309;28;20059;-87
2023/10/30 10:12:37;;;;;;;1.45;0.82;;;;;;;11.92;90.57;99235.34;4917337;28;20054;-86
2023/10/30 10:15:08;;;;;;;3.88;1.23;;;;;;;11.94;90.61;99228.25;4921125;28;20043;-88
2023/10/30 10:17:48;;;;;;;1.95;1.20;;;;;;;11.93;90.57;99218.66;4922068;28;20052;-86
2023/10/30 10:20:16;;;;;;;3.25;1.23;;;;;;;12.03;90.64;99215.69;4911079;28;20059;-88
2023/10/30 10:22:44;;;;;;;2.90;1.60;;;;;;;11.97;90.47;99203.63;4919700;28;20063;-86
2023/10/30 10:25:11;;;;;;;2.67;1.55;;;;;;;11.94;90.77;99214.28;4918743;28;20058;-86
2023/10/30 10:27:38;;;;;;;1.70;1.30;;;;;;;11.95;90.22;99237.03;4924848;28;20069;-87
2023/10/30 10:30:06;;;;;;;4.53;1.67;;;;;;;12.01;90.70;99218.38;4914442;28;20048;-87
2023/10/30 10:32:33;;;;;;;2.92;1.70;;;;;;;12.03;90.59;99208.63;4845944;28;20115;-87
2023/10/30 10:35:02;;;;;;;2.42;1.65;;;;;;;12.03;90.53;99203.38;4911468;28;20047;-87
2023/10/30 10:37:31;;;;;;;2.50;1.70;;;;;;;12.04;90.26;99202.47;4870695;28;20060;-88
2023/10/30 10:39:58;;;;;;;3.08;2.10;;;;;;;12.12;90.19;99204.78;4912320;28;20056;-87
2023/10/30 10:42:27;;;;;;;2.15;1.25;;;;;;;12.26;90.12;99193.69;4893373;28;20075;-87
2023/10/30 10:44:55;;;;;;;2.22;1.35;;;;;;;12.25;90.17;99181.44;4919161;28;20155;-88
2023/10/30 10:47:23;;;;;;;1.30;1.20;;;;;;;12.26;89.89;99183.16;4913202;28;20047;-87
2023/10/30 10:49:51;;;;;;;2.70;1.65;;;;;;;12.27;89.21;99177.84;4913329;29;20147;-87
2023/10/30 10:52:19;;;;;;;3.55;1.63;;;;;;;12.39;89.27;99173.84;4915219;28;20113;-86
2023/10/30 10:55:04;;;;;;;2.33;1.60;;;;;;;12.46;89.40;99154.22;4920554;28;20067;-87
2023/10/30 10:57:52;;;;;;;1.80;1.30;;;;;;;12.42;88.66;99150.03;4924592;28;20051;-87
2023/10/30 11:00:20;;;;;;;1.50;1.33;;;;;;;12.51;88.66;99147.00;4914534;28;20051;-86
2023/10/30 11:02:51;;;;;;;1.30;1.20;;;;;;;12.47;87.98;99142.78;4921274;28;20055;-87
2023/10/30 11:05:18;;;;;;;1.30;1.20;;;;;;;12.71;88.39;99132.09;4908609;29;20098;-87
2023/10/30 11:08:00;;;;;;;2.30;1.08;;;;;;;12.63;86.75;99116.66;4912740;28;20112;-87
2023/10/30 11:10:36;;;;;;;1.70;1.27;;;;;;;12.64;86.33;99117.50;4907680;28;20056;-87
2023/10/30 11:13:12;;;;;;;1.83;1.27;;;;;;;12.78;86.04;99112.47;4909953;28;20503;-87
2023/10/30 11:15:52;;;;;;;1.90;1.25;;;;;;;12.74;85.87;99100.38;4893025;28;20051;-87
2023/10/30 11:18:21;;;;;;;1.80;1.27;;;;;;;12.89;86.51;99104.09;4908088;28;20055;-87
2023/10/30 11:20:54;;;;;;;2.88;1.20;;;;;;;12.82;85.57;99087.72;4901075;28;20052;-88
2023/10/30 11:23:47;;;;;;;1.63;0.90;;;;;;;12.83;85.82;99078.91;4867292;28;20103;-87
2023/10/30 11:26:29;;;;;;;2.67;1.00;;;;;;;12.90;86.03;99082.09;4889453;28;20055;-87
2023/10/30 11:29:00;;;;;;;2.63;1.05;;;;;;;12.84;85.35;99075.34;4909838;28;20052;-87
2023/10/30 11:31:32;;;;;;;1.92;1.17;;;;;;;12.93;86.08;99079.31;4888356;28;20052;-88
2023/10/30 11:34:12;;;;;;;2.22;1.13;;;;;;;12.93;85.89;99071.41;4913100;28;20080;-87
2023/10/30 11:36:39;;;;;;;4.10;1.20;;;;;;;12.82;84.75;99061.41;4913037;28;20071;-87
2023/10/30 11:39:43;;;;;;;3.28;0.98;;;;;;;12.87;85.10;99059.41;4913521;28;20053;-87